createdAt,value
2018-09-08T00:02:00.147Z,97057.97
2018-09-08T00:04:28.933Z,97055.73
2018-09-08T00:07:02.856Z,97061.45
2018-09-08T00:09:31.628Z,97058.38
2018-09-08T00:12:00.403Z,97063.55
2018-09-08T00:14:29.183Z,97059.92
2018-09-08T00:17:03.263Z,97057.84
2018-09-08T00:19:37.269Z,97058.09
2018-09-08T00:22:11.298Z,97056.00
2018-09-08T00:24:45.272Z,97055.05
2018-09-08T00:27:13.082Z,97054.30
2018-09-08T00:29:47.003Z,97053.22
2018-09-08T00:32:15.907Z,97054.34
2018-09-08T00:34:44.700Z,97048.68
2018-09-08T00:37:13.485Z,97054.14
2018-09-08T00:39:43.531Z,97057.25
2018-09-08T00:42:12.749Z,97057.47
2018-09-08T00:44:41.548Z,97056.18
2018-09-08T00:47:10.317Z,97056.17
2018-09-08T00:49:39.249Z,97053.55
2018-09-08T00:52:08.280Z,97058.02
2018-09-08T00:54:37.053Z,97062.70
2018-09-08T00:57:05.802Z,97062.98
2018-09-08T00:59:34.588Z,97069.19
2018-09-08T01:02:03.365Z,97074.85
2018-09-08T01:04:32.191Z,97074.87
2018-09-08T01:07:01.249Z,97076.67
2018-09-08T01:09:30.094Z,97074.84
2018-09-08T01:11:58.989Z,97079.52
2018-09-08T01:14:27.748Z,97077.94
2018-09-08T01:16:56.506Z,97078.20
2018-09-08T01:19:25.260Z,97079.71
2018-09-08T01:21:54.035Z,97079.97
2018-09-08T01:24:22.860Z,97081.53
2018-09-08T01:26:51.677Z,97080.75
2018-09-08T01:29:20.448Z,97089.23
2018-09-08T01:31:49.347Z,97087.42
2018-09-08T01:34:18.097Z,97093.06
2018-09-08T01:36:46.876Z,97094.64
2018-09-08T01:39:15.757Z,97096.69
2018-09-08T01:41:44.524Z,97099.77
2018-09-08T01:44:13.272Z,97096.90
2018-09-08T01:46:42.019Z,97098.73
2018-09-08T01:49:10.765Z,97095.36
2018-09-08T01:51:39.520Z,97094.10
2018-09-08T01:54:08.743Z,97099.30
2018-09-08T01:56:37.576Z,97089.73
2018-09-08T01:59:06.503Z,97093.61
2018-09-08T02:01:35.310Z,97096.98
2018-09-08T02:04:04.216Z,97095.43
2018-09-08T02:06:33.003Z,97097.00
2018-09-08T02:09:01.828Z,97095.46
2018-09-08T02:11:30.588Z,97093.64
2018-09-08T02:13:59.358Z,97100.62
2018-09-08T02:16:28.145Z,97100.62
2018-09-08T02:18:56.951Z,97104.78
2018-09-08T02:21:25.707Z,97106.58
2018-09-08T02:23:54.485Z,97103.48
2018-09-08T02:26:23.380Z,97100.67
2018-09-08T02:28:52.460Z,97105.86
2018-09-08T02:31:21.191Z,97103.77
2018-09-08T02:33:50.041Z,97105.84
2018-09-08T02:36:18.801Z,97109.17
2018-09-08T02:38:47.616Z,97104.31
2018-09-08T02:41:16.379Z,97104.31
2018-09-08T02:43:45.203Z,97101.21
2018-09-08T02:46:13.945Z,97105.89
2018-09-08T02:48:42.785Z,97112.59
2018-09-08T02:51:10.174Z,97110.79
2018-09-08T02:53:37.579Z,97106.40
2018-09-08T02:56:04.976Z,97110.79
2018-09-08T02:58:32.456Z,97107.41
2018-09-08T03:00:59.881Z,97108.45
2018-09-08T03:03:27.263Z,97107.19
2018-09-08T03:05:54.669Z,97114.67
2018-09-08T03:08:22.056Z,97109.48
2018-09-08T03:10:49.441Z,97110.77
2018-09-08T03:13:16.836Z,97107.44
2018-09-08T03:15:44.224Z,97114.14
2018-09-08T03:20:45.211Z,97117.50
2018-09-08T03:23:12.602Z,97113.37
2018-09-08T03:25:40.009Z,97118.02
2018-09-08T03:28:07.463Z,97118.03
2018-09-08T03:30:34.975Z,97120.35
2018-09-08T03:33:02.529Z,97127.58
2018-09-08T03:35:29.936Z,97120.34
2018-09-08T03:37:57.337Z,97124.72
2018-09-08T03:40:24.826Z,97126.80
2018-09-08T03:42:52.280Z,97123.67
2018-09-08T03:45:19.747Z,97126.28
2018-09-08T03:47:47.151Z,97131.19
2018-09-08T03:50:14.593Z,97120.07
2018-09-08T03:52:41.988Z,97118.27
2018-09-08T03:55:09.373Z,97121.62
2018-09-08T03:57:36.855Z,97121.61
2018-09-08T04:00:04.325Z,97121.87
2018-09-08T04:02:31.704Z,97123.93
2018-09-08T04:05:00.529Z,97128.31
2018-09-08T04:07:29.288Z,97124.71
2018-09-08T04:09:58.163Z,97131.41
2018-09-08T04:12:26.911Z,97131.13
2018-09-08T04:14:55.684Z,97126.23
2018-09-08T04:17:24.428Z,97132.95
2018-09-08T04:19:53.348Z,97130.61
2018-09-08T04:22:26.245Z,97125.72
2018-09-08T04:24:55.022Z,97127.01
2018-09-08T04:27:23.820Z,97136.03
2018-09-08T04:29:52.568Z,97132.63
2018-09-08T04:32:21.425Z,97139.10
2018-09-08T04:34:50.252Z,97143.48
2018-09-08T04:37:19.024Z,97139.36
2018-09-08T04:39:47.910Z,97140.92
2018-09-08T04:42:16.724Z,97142.98
2018-09-08T04:44:45.537Z,97144.26
2018-09-08T04:47:14.298Z,97140.61
2018-09-08T04:49:43.083Z,97138.07
2018-09-08T04:52:11.856Z,97139.10
2018-09-08T04:54:40.729Z,97142.47
2018-09-08T04:57:09.480Z,97149.39
2018-09-08T04:59:38.254Z,97146.02
2018-09-08T05:02:07.043Z,97150.72
2018-09-08T05:04:35.924Z,97153.28
2018-09-08T05:07:04.780Z,97152.25
2018-09-08T05:09:33.525Z,97154.83
2018-09-08T05:12:02.748Z,97160.45
2018-09-08T05:14:31.567Z,97161.47
2018-09-08T05:17:00.381Z,97170.75
2018-09-08T05:19:29.113Z,97172.06
2018-09-08T05:21:57.958Z,97170.05
2018-09-08T05:24:26.809Z,97169.03
2018-09-08T05:26:55.565Z,97166.19
2018-09-08T05:29:24.306Z,97170.84
2018-09-08T05:31:53.170Z,97171.84
2018-09-08T05:34:22.040Z,97177.00
2018-09-08T05:36:50.799Z,97169.78
2018-09-08T05:39:19.545Z,97177.29
2018-09-08T05:41:48.299Z,97174.70
2018-09-08T05:44:17.064Z,97178.84
2018-09-08T05:46:46.016Z,97184.27
2018-09-08T05:49:14.913Z,97185.02
2018-09-08T05:51:43.723Z,97185.03
2018-09-08T05:54:12.671Z,97185.05
2018-09-08T05:56:41.453Z,97182.48
2018-09-08T05:59:10.267Z,97184.30
2018-09-08T06:01:39.036Z,97187.16
2018-09-08T06:04:08.100Z,97190.52
2018-09-08T06:06:36.945Z,97193.89
2018-09-08T06:09:07.504Z,97199.31
2018-09-08T06:11:36.285Z,97196.71
2018-09-08T06:14:05.156Z,97191.56
2018-09-08T06:16:34.132Z,97194.14
2018-09-08T06:19:03.011Z,97194.41
2018-09-08T06:21:32.195Z,97190.80
2018-09-08T06:24:00.962Z,97192.84
2018-09-08T06:26:29.723Z,97193.88
2018-09-08T06:28:58.480Z,97194.41
2018-09-08T06:31:27.240Z,97194.14
2018-09-08T06:33:56.059Z,97196.22
2018-09-08T06:36:24.800Z,97190.52
2018-09-08T06:38:55.011Z,97198.00
2018-09-08T06:41:23.773Z,97189.45
2018-09-08T06:43:52.713Z,97188.34
2018-09-08T06:46:21.495Z,97190.27
2018-09-08T06:48:50.256Z,97194.70
2018-09-08T06:51:19.033Z,97200.44
2018-09-08T06:53:47.784Z,97193.00
2018-09-08T06:56:16.524Z,97199.97
2018-09-08T06:58:45.319Z,97195.80
2018-09-08T07:01:14.126Z,97199.48
2018-09-08T07:03:42.988Z,97197.63
2018-09-08T07:06:11.795Z,97199.19
2018-09-08T07:08:40.564Z,97202.13
2018-09-08T07:11:09.421Z,97199.44
2018-09-08T07:13:38.332Z,97209.73
2018-09-08T07:16:07.472Z,97212.33
2018-09-08T07:18:36.251Z,97211.22
2018-09-08T07:21:05.055Z,97207.25
2018-09-08T07:23:33.884Z,97205.63
2018-09-08T07:26:03.238Z,97212.52
2018-09-08T07:28:32.671Z,97208.97
2018-09-08T07:31:01.612Z,97211.07
2018-09-08T07:33:30.860Z,97222.81
2018-09-08T07:35:59.636Z,97214.94
2018-09-08T07:38:28.407Z,97215.00
2018-09-08T07:40:57.235Z,97218.97
2018-09-08T07:43:27.795Z,97217.14
2018-09-08T07:45:56.727Z,97223.58
2018-09-08T07:48:25.559Z,97226.09
2018-09-08T07:50:54.433Z,97227.30
2018-09-08T07:53:23.392Z,97230.06
2018-09-08T07:55:52.079Z,97223.78
2018-09-08T07:58:20.873Z,97231.61
2018-09-08T08:00:49.741Z,97230.61
2018-09-08T08:03:19.171Z,97228.08
2018-09-08T08:05:48.080Z,97227.66
2018-09-08T08:08:16.911Z,97237.94
2018-09-08T08:10:45.732Z,97230.52
2018-09-08T08:13:14.583Z,97238.55
2018-09-08T08:15:44.261Z,97238.92
2018-09-08T08:18:13.352Z,97239.23
2018-09-08T08:20:42.132Z,97233.68
2018-09-08T08:23:10.901Z,97237.70
2018-09-08T08:25:39.802Z,97241.78
2018-09-08T08:28:08.771Z,97242.84
2018-09-08T08:30:43.933Z,97246.76
2018-09-08T08:33:12.701Z,97249.26
2018-09-08T08:35:41.533Z,97240.47
2018-09-08T08:38:10.328Z,97233.85
2018-09-08T08:40:39.246Z,97242.80
2018-09-08T08:43:08.097Z,97243.52
2018-09-08T08:45:36.868Z,97239.72
2018-09-08T08:48:05.863Z,97247.59
2018-09-08T08:50:45.737Z,97250.66
2018-09-08T08:53:25.497Z,97251.17
2018-09-08T08:55:54.374Z,97249.84
2018-09-08T08:58:23.081Z,97243.63
2018-09-08T09:00:52.006Z,97248.79
2018-09-08T09:03:20.784Z,97247.95
2018-09-08T09:05:49.566Z,97249.31
2018-09-08T09:08:18.841Z,97250.16
2018-09-08T09:10:47.234Z,97249.96
2018-09-08T09:13:16.077Z,97249.72
2018-09-08T09:15:44.928Z,97250.15
2018-09-08T09:18:23.565Z,97250.09
2018-09-08T09:21:03.439Z,97240.97
2018-09-08T09:23:43.108Z,97244.61
2018-09-08T09:26:11.872Z,97242.22
2018-09-08T09:28:40.620Z,97238.94
2018-09-08T09:31:09.497Z,97230.26
2018-09-08T09:33:38.351Z,97231.48
2018-09-08T09:36:07.315Z,97227.33
2018-09-08T09:38:36.089Z,97228.75
2018-09-08T09:41:04.847Z,97225.48
2018-09-08T09:43:33.675Z,97220.93
2018-09-08T09:46:02.424Z,97219.96
2018-09-08T09:48:31.792Z,97226.16
2018-09-08T09:51:00.594Z,97226.94
2018-09-08T09:53:29.363Z,97222.55
2018-09-08T09:55:58.124Z,97217.72
2018-09-08T09:58:27.026Z,97222.93
2018-09-08T10:01:01.430Z,97223.16
2018-09-08T10:03:30.229Z,97219.57
2018-09-08T10:05:59.058Z,97224.60
2018-09-08T10:08:27.857Z,97213.44
2018-09-08T10:10:56.601Z,97213.72
2018-09-08T10:13:25.376Z,97208.56
2018-09-08T10:15:54.341Z,97216.07
2018-09-08T10:18:23.113Z,97205.61
2018-09-08T10:20:51.990Z,97211.55
2018-09-08T10:23:20.878Z,97214.00
2018-09-08T10:25:49.603Z,97210.94
2018-09-08T10:28:18.361Z,97198.84
2018-09-08T10:30:47.205Z,97196.47
2018-09-08T10:33:15.965Z,97191.97
2018-09-08T10:35:44.748Z,97194.05
2018-09-08T10:38:13.508Z,97185.62
2018-09-08T10:40:42.374Z,97186.05
2018-09-08T10:43:11.178Z,97195.06
2018-09-08T10:45:40.057Z,97193.52
2018-09-08T10:48:09.005Z,97192.63
2018-09-08T10:50:37.788Z,97185.64
2018-09-08T10:53:06.565Z,97186.40
2018-09-08T10:55:35.356Z,97183.62
2018-09-08T10:58:04.088Z,97186.16
2018-09-08T11:00:33.389Z,97182.84
2018-09-08T11:03:02.128Z,97176.16
2018-09-08T11:05:30.900Z,97172.16
2018-09-08T11:07:59.657Z,97171.16
2018-09-08T11:10:28.457Z,97173.69
2018-09-08T11:12:57.228Z,97160.27
2018-09-08T11:15:26.232Z,97162.48
2018-09-08T11:17:55.000Z,97156.14
2018-09-08T11:20:23.759Z,97159.02
2018-09-08T11:22:52.668Z,97151.67
2018-09-08T11:25:21.403Z,97152.42
2018-09-08T11:27:50.276Z,97157.31
2018-09-08T11:30:19.252Z,97159.23
2018-09-08T11:32:48.044Z,97155.73
2018-09-08T11:35:16.952Z,97162.29
2018-09-08T11:37:46.700Z,97158.19
2018-09-08T11:40:16.376Z,97152.01
2018-09-08T11:42:45.193Z,97156.24
2018-09-08T11:45:14.231Z,97159.87
2018-09-08T11:47:43.113Z,97161.42
2018-09-08T11:50:11.920Z,97157.09
2018-09-08T11:52:41.849Z,97157.41
2018-09-08T11:55:12.911Z,97155.36
2018-09-08T11:57:41.876Z,97149.70
2018-09-08T12:00:10.853Z,97153.64
2018-09-08T12:02:42.386Z,97148.64
2018-09-08T12:05:12.017Z,97147.32
2018-09-08T12:07:40.797Z,97136.67
2018-09-08T12:10:10.925Z,97138.09
2018-09-08T12:12:39.820Z,97135.41
2018-09-08T12:15:08.668Z,97140.48
2018-09-08T12:17:37.441Z,97129.20
2018-09-08T12:20:06.244Z,97127.84
2018-09-08T12:22:35.003Z,97135.08
2018-09-08T12:25:03.768Z,97127.46
2018-09-08T12:27:32.528Z,97115.86
2018-09-08T12:30:01.440Z,97126.91
2018-09-08T12:32:30.473Z,97113.81
2018-09-08T12:34:59.190Z,97112.79
2018-09-08T12:37:27.924Z,97110.34
2018-09-08T12:39:56.697Z,97104.64
2018-09-08T12:42:25.431Z,97105.30
2018-09-08T12:44:54.192Z,97101.37
2018-09-08T12:47:22.940Z,97105.65
2018-09-08T12:49:51.733Z,97103.78
2018-09-08T12:52:20.599Z,97103.16
2018-09-08T12:54:49.452Z,97102.65
2018-09-08T12:57:18.208Z,97092.39
2018-09-08T12:59:47.165Z,97094.66
2018-09-08T13:02:15.913Z,97091.09
2018-09-08T13:04:44.669Z,97094.67
2018-09-08T13:07:13.451Z,97090.99
2018-09-08T13:09:42.217Z,97095.86
2018-09-08T13:12:11.079Z,97087.82
2018-09-08T13:14:39.832Z,97080.38
2018-09-08T13:17:08.638Z,97081.95
2018-09-08T13:19:37.493Z,97086.08
2018-09-08T13:22:06.344Z,97079.89
2018-09-08T13:24:35.171Z,97062.67
2018-09-08T13:27:03.925Z,97067.68
2018-09-08T13:29:32.701Z,97067.77
2018-09-08T13:32:01.613Z,97065.55
2018-09-08T13:34:30.457Z,97065.39
2018-09-08T13:36:59.212Z,97065.95
2018-09-08T13:39:28.105Z,97068.86
2018-09-08T13:41:56.841Z,97064.22
2018-09-08T13:44:25.572Z,97064.77
2018-09-08T13:46:54.382Z,97064.06
2018-09-08T13:49:23.180Z,97068.05
2018-09-08T13:51:51.978Z,97067.60
2018-09-08T13:54:20.846Z,97072.56
2018-09-08T13:56:49.597Z,97081.33
2018-09-08T13:59:18.337Z,97073.36
2018-09-08T14:01:47.112Z,97076.40
2018-09-08T14:04:15.984Z,97076.45
2018-09-08T14:06:44.761Z,97074.91
2018-09-08T14:09:13.519Z,97061.58
2018-09-08T14:11:43.001Z,97066.91
2018-09-08T14:14:11.840Z,97064.14
2018-09-08T14:16:40.683Z,97062.47
2018-09-08T14:19:09.492Z,97057.95
2018-09-08T14:21:38.272Z,97058.95
2018-09-08T14:24:07.112Z,97066.73
2018-09-08T14:26:35.871Z,97055.78
2018-09-08T14:29:04.656Z,97052.19
2018-09-08T14:31:33.547Z,97043.10
2018-09-08T14:34:02.366Z,97044.36
2018-09-08T14:36:31.113Z,97034.69
2018-09-08T14:38:59.880Z,97037.73
2018-09-08T14:41:28.724Z,97034.16
2018-09-08T14:43:57.641Z,97046.55
2018-09-08T14:46:26.399Z,97039.91
2018-09-08T14:48:55.279Z,97042.39
2018-09-08T14:51:24.044Z,97041.45
2018-09-08T14:53:52.787Z,97041.70
2018-09-08T14:56:21.591Z,97034.98
2018-09-08T14:58:50.725Z,97038.08
2018-09-08T15:01:19.569Z,97039.12
2018-09-08T15:03:48.523Z,97046.48
2018-09-08T15:06:17.284Z,97053.69
2018-09-08T15:08:46.069Z,97044.27
2018-09-08T15:11:14.819Z,97036.61
2018-09-08T15:13:43.560Z,97041.41
2018-09-08T15:16:12.323Z,97041.22
2018-09-08T15:18:41.185Z,97032.41
2018-09-08T15:21:09.925Z,97043.57
2018-09-08T15:23:38.689Z,97045.97
2018-09-08T15:26:07.693Z,97047.53
2018-09-08T15:28:36.492Z,97043.06
2018-09-08T15:31:05.263Z,97040.20
2018-09-08T15:33:34.035Z,97036.26
2018-09-08T15:36:02.755Z,97034.62
2018-09-08T15:38:31.583Z,97032.04
2018-09-08T15:41:00.473Z,97042.92
2018-09-08T15:43:29.456Z,97042.39
2018-09-08T15:45:58.265Z,97033.34
2018-09-08T15:48:26.998Z,97041.23
2018-09-08T15:50:55.784Z,97041.54
2018-09-08T15:53:24.672Z,97041.52
2018-09-08T15:55:53.594Z,97046.12
2018-09-08T15:58:22.397Z,97044.81
2018-09-08T16:00:51.148Z,97053.34
2018-09-08T16:03:19.914Z,97050.38
2018-09-08T16:05:48.644Z,97044.61
2018-09-08T16:08:17.508Z,97046.34
2018-09-08T16:10:46.458Z,97052.24
2018-09-08T16:13:15.236Z,97046.23
2018-09-08T16:15:44.120Z,97047.22
2018-09-08T16:18:12.991Z,97038.23
2018-09-08T16:20:41.753Z,97044.92
2018-09-08T16:23:10.537Z,97032.55
2018-09-08T16:25:39.283Z,97038.56
2018-09-08T16:28:08.051Z,97036.44
2018-09-08T16:30:36.809Z,97042.69
2018-09-08T16:33:05.662Z,97038.48
2018-09-08T16:35:36.210Z,97040.06
2018-09-08T16:38:04.984Z,97047.55
2018-09-08T16:40:34.014Z,97036.19
2018-09-08T16:43:02.763Z,97038.97
2018-09-08T16:45:31.984Z,97043.23
2018-09-08T16:48:00.805Z,97046.30
2018-09-08T16:50:30.744Z,97050.54
2018-09-08T16:52:59.489Z,97047.48
2018-09-08T16:55:28.541Z,97043.42
2018-09-08T16:57:57.526Z,97048.09
2018-09-08T17:00:26.255Z,97042.95
2018-09-08T17:02:55.036Z,97044.78
2018-09-08T17:05:23.800Z,97042.46
2018-09-08T17:07:52.573Z,97044.47
2018-09-08T17:10:21.615Z,97043.20
2018-09-08T17:12:50.540Z,97042.78
2018-09-08T17:15:20.080Z,97044.47
2018-09-08T17:17:48.817Z,97041.86
2018-09-08T17:20:17.568Z,97046.41
2018-09-08T17:22:46.319Z,97045.12
2018-09-08T17:25:16.430Z,97044.39
2018-09-08T17:27:45.528Z,97043.33
2018-09-08T17:30:14.310Z,97043.66
2018-09-08T17:32:43.181Z,97043.45
2018-09-08T17:35:13.918Z,97052.77
2018-09-08T17:37:43.027Z,97052.84
2018-09-08T17:40:11.816Z,97054.03
2018-09-08T17:42:40.565Z,97052.80
2018-09-08T17:45:09.472Z,97048.23
2018-09-08T17:47:38.347Z,97057.84
2018-09-08T17:50:07.285Z,97056.01
2018-09-08T17:52:36.153Z,97054.88
2018-09-08T17:55:06.339Z,97060.25
2018-09-08T17:57:35.128Z,97062.70
2018-09-08T18:00:05.551Z,97062.83
2018-09-08T18:02:34.353Z,97060.47
2018-09-08T18:05:03.342Z,97068.41
2018-09-08T18:07:32.117Z,97067.70
2018-09-08T18:10:01.019Z,97063.28
2018-09-08T18:12:29.962Z,97068.02
2018-09-08T18:14:58.719Z,97062.33
2018-09-08T18:17:27.506Z,97069.58
2018-09-08T18:19:56.999Z,97072.33
2018-09-08T18:22:26.040Z,97075.00
2018-09-08T18:24:56.212Z,97081.30
2018-09-08T18:27:25.027Z,97079.40
2018-09-08T18:29:53.812Z,97071.59
2018-09-08T18:32:22.633Z,97082.42
2018-09-08T18:34:51.489Z,97079.50
2018-09-08T18:37:20.259Z,97078.19
2018-09-08T18:39:49.028Z,97086.55
2018-09-08T18:42:17.800Z,97090.13
2018-09-08T18:44:46.552Z,97087.17
2018-09-08T18:47:15.335Z,97084.00
2018-09-08T18:49:45.916Z,97088.69
2018-09-08T18:52:16.225Z,97086.08
2018-09-08T18:54:45.372Z,97086.59
2018-09-08T18:57:14.189Z,97085.92
2018-09-08T18:59:43.016Z,97092.52
2018-09-08T19:02:11.864Z,97094.24
2018-09-08T19:04:40.756Z,97092.47
2018-09-08T19:07:11.119Z,97093.92
2018-09-08T19:09:40.131Z,97099.27
2018-09-08T19:12:08.931Z,97095.68
2018-09-08T19:14:43.597Z,97095.68
2018-09-08T19:17:12.441Z,97096.84
2018-09-08T19:19:41.210Z,97095.86
2018-09-08T19:22:11.419Z,97099.01
2018-09-08T19:24:44.593Z,97104.34
2018-09-08T19:27:14.116Z,97114.02
2018-09-08T19:29:48.380Z,97104.24
2018-09-08T19:32:18.054Z,97106.58
2018-09-08T19:34:50.981Z,97102.57
2018-09-08T19:37:21.549Z,97106.74
2018-09-08T19:39:50.632Z,97114.95
2018-09-08T19:42:22.435Z,97108.83
2018-09-08T19:44:51.277Z,97106.09
2018-09-08T19:47:25.145Z,97110.66
2018-09-08T19:49:53.922Z,97105.59
2018-09-08T19:52:28.115Z,97114.56
2018-09-08T19:54:56.843Z,97115.17
2018-09-08T19:57:30.782Z,97113.94
2018-09-08T20:00:02.175Z,97112.73
2018-09-08T20:02:30.981Z,97120.63
2018-09-08T20:04:59.763Z,97116.79
2018-09-08T20:07:28.620Z,97120.53
2018-09-08T20:09:57.538Z,97119.26
2018-09-08T20:12:27.549Z,97120.80
2018-09-08T20:14:56.323Z,97124.25
2018-09-08T20:17:25.084Z,97124.59
2018-09-08T20:19:53.978Z,97118.84
2018-09-08T20:22:22.741Z,97122.81
2018-09-08T20:24:51.504Z,97117.94
2018-09-08T20:27:21.234Z,97113.04
2018-09-08T20:29:50.068Z,97119.11
2018-09-08T20:32:20.103Z,97124.80
2018-09-08T20:34:50.527Z,97131.31
2018-09-08T20:37:20.429Z,97126.13
2018-09-08T20:39:52.184Z,97125.39
2018-09-08T20:42:22.269Z,97127.75
2018-09-08T20:44:52.930Z,97128.56
2018-09-08T20:47:23.288Z,97124.74
2018-09-08T20:49:53.838Z,97118.86
2018-09-08T20:52:24.275Z,97123.34
2018-09-08T20:55:00.201Z,97124.73
2018-09-08T20:57:31.037Z,97121.64
2018-09-08T21:00:01.500Z,97119.86
2018-09-08T21:02:30.860Z,97126.56
2018-09-08T21:05:01.164Z,97121.98
2018-09-08T21:07:31.324Z,97117.34
2018-09-08T21:10:00.191Z,97118.41
2018-09-08T21:12:29.004Z,97122.89
2018-09-08T21:14:57.797Z,97115.70
2018-09-08T21:17:26.721Z,97110.04
2018-09-08T21:19:55.502Z,97109.55
2018-09-08T21:22:24.266Z,97115.77
2018-09-08T21:24:53.052Z,97110.34
2018-09-08T21:27:21.867Z,97112.23
2018-09-08T21:29:50.636Z,97107.59
2018-09-08T21:32:19.498Z,97108.35
2018-09-08T21:34:48.451Z,97104.27
2018-09-08T21:37:17.233Z,97107.17
2018-09-08T21:39:46.108Z,97104.27
2018-09-08T21:42:14.864Z,97101.15
2018-09-08T21:44:43.652Z,97101.97
2018-09-08T21:47:12.432Z,97096.08
2018-09-08T21:49:41.215Z,97104.41
2018-09-08T21:52:10.814Z,97090.22
2018-09-08T21:54:41.474Z,97091.77
2018-09-08T21:57:10.319Z,97096.22
2018-09-08T21:59:41.205Z,97097.27
2018-09-08T22:02:11.376Z,97096.77
2018-09-08T22:04:41.738Z,97094.69
2018-09-08T22:07:10.716Z,97103.06
2018-09-08T22:09:40.706Z,97107.45
2018-09-08T22:12:11.704Z,97102.27
2018-09-08T22:14:41.479Z,97099.53
2018-09-08T22:17:10.324Z,97101.08
2018-09-08T22:19:41.226Z,97100.05
2018-09-08T22:22:10.141Z,97110.38
2018-09-08T22:24:40.417Z,97103.97
2018-09-08T22:27:10.612Z,97100.34
2018-09-08T22:29:40.981Z,97106.59
2018-09-08T22:32:10.192Z,97104.22
2018-09-08T22:34:39.091Z,97104.86
2018-09-08T22:37:08.221Z,97113.86
2018-09-08T22:39:37.535Z,97116.98
2018-09-08T22:42:06.308Z,97115.16
2018-09-08T22:44:37.213Z,97115.44
2018-09-08T22:47:08.121Z,97117.24
2018-09-08T22:49:37.570Z,97125.00
2018-09-08T22:52:07.731Z,97125.00
2018-09-08T22:54:37.753Z,97125.78
2018-09-08T22:57:06.946Z,97131.72
2018-09-08T22:59:35.707Z,97133.83
2018-09-08T23:02:04.460Z,97141.33
2018-09-08T23:04:33.492Z,97137.71
2018-09-08T23:07:04.436Z,97141.38
2018-09-08T23:09:33.185Z,97141.63
2018-09-08T23:12:01.957Z,97141.13
2018-09-08T23:14:30.821Z,97143.70
2018-09-08T23:17:00.002Z,97142.41
2018-09-08T23:19:28.895Z,97144.23
2018-09-08T23:21:59.244Z,97142.44
2018-09-08T23:24:30.219Z,97146.06
2018-09-08T23:27:00.742Z,97147.08
2018-09-08T23:29:30.237Z,97142.44
2018-09-08T23:31:59.015Z,97142.72
2018-09-08T23:34:27.820Z,97144.26
2018-09-08T23:36:57.728Z,97141.70
2018-09-08T23:39:26.550Z,97148.92
2018-09-08T23:41:55.387Z,97145.06
2018-09-08T23:44:26.344Z,97149.19
2018-09-08T23:46:56.189Z,97144.28
2018-09-08T23:49:25.725Z,97146.36
2018-09-08T23:51:55.325Z,97149.73
2018-09-08T23:54:24.151Z,97132.42
2018-09-08T23:56:52.987Z,97138.11
2018-09-08T23:59:21.849Z,97140.69
